createdAt,value
2023-03-06T00:00:38.223Z,33.41
2023-03-06T00:03:42.825Z,33.39
2023-03-06T00:06:45.974Z,33.36
2023-03-06T00:09:49.058Z,33.40
2023-03-06T00:12:53.709Z,33.37
2023-03-06T00:16:00.817Z,33.13
2023-03-06T00:19:05.488Z,33.53
2023-03-06T00:22:08.591Z,33.34
2023-03-06T00:25:15.566Z,33.24
2023-03-06T00:28:18.761Z,33.24
2023-03-06T00:31:21.898Z,33.16
2023-03-06T00:34:26.847Z,33.22
2023-03-06T00:37:29.970Z,33.26
2023-03-06T00:40:33.085Z,33.16
2023-03-06T00:43:36.190Z,33.22
2023-03-06T00:46:39.223Z,32.95
2023-03-06T00:49:43.866Z,33.42
2023-03-06T00:52:46.969Z,33.08
2023-03-06T00:55:51.085Z,32.95
2023-03-06T00:58:54.250Z,33.05
2023-03-06T01:01:57.498Z,32.93
2023-03-06T01:05:02.135Z,32.98
2023-03-06T01:08:05.724Z,32.93
2023-03-06T01:11:08.851Z,32.98
2023-03-06T01:14:12.075Z,32.95
2023-03-06T01:17:16.030Z,32.95
2023-03-06T01:20:20.539Z,33.00
2023-03-06T01:23:23.673Z,32.87
2023-03-06T01:26:26.765Z,33.10
2023-03-06T01:29:30.171Z,32.77
2023-03-06T01:32:34.069Z,32.83
2023-03-06T01:35:39.175Z,32.91
2023-03-06T01:38:42.405Z,32.64
2023-03-06T01:41:45.620Z,33.25
2023-03-06T01:45:02.447Z,32.71
2023-03-06T01:48:05.564Z,32.96
2023-03-06T01:51:10.287Z,32.82
2023-03-06T01:54:16.748Z,32.67
2023-03-06T01:57:23.395Z,32.78
2023-03-06T02:00:28.254Z,32.61
2023-03-06T02:03:33.251Z,32.79
2023-03-06T02:06:43.234Z,32.44
2023-03-06T02:09:46.424Z,32.61
2023-03-06T02:12:50.713Z,32.53
2023-03-06T02:15:53.902Z,32.51
2023-03-06T02:18:57.567Z,32.72
2023-03-06T02:22:02.496Z,32.65
2023-03-06T02:25:10.835Z,32.54
2023-03-06T02:28:18.294Z,32.71
2023-03-06T02:31:24.507Z,32.54
2023-03-06T02:35:00.557Z,32.43
2023-03-06T02:38:08.131Z,32.24
2023-03-06T02:41:11.297Z,32.28
2023-03-06T02:44:15.813Z,32.27
2023-03-06T02:47:18.973Z,32.11
2023-03-06T02:50:22.120Z,32.11
2023-03-06T02:53:30.233Z,32.28
2023-03-06T02:56:33.406Z,31.86
2023-03-06T02:59:37.930Z,32.25
2023-03-06T03:02:41.250Z,32.09
2023-03-06T03:05:44.466Z,32.13
2023-03-06T03:08:47.571Z,31.91
2023-03-06T03:11:50.637Z,31.83
2023-03-06T03:14:55.161Z,32.08
2023-03-06T03:17:58.248Z,31.94
2023-03-06T03:21:01.403Z,31.92
2023-03-06T03:24:04.739Z,31.90
2023-03-06T03:27:07.891Z,32.03
2023-03-06T03:30:14.069Z,31.91
2023-03-06T03:33:17.157Z,31.76
2023-03-06T03:36:20.208Z,31.90
2023-03-06T03:39:23.498Z,31.81
2023-03-06T03:42:26.677Z,31.78
2023-03-06T03:45:31.206Z,31.75
2023-03-06T03:48:34.345Z,31.80
2023-03-06T03:51:37.400Z,31.94
2023-03-06T03:54:40.510Z,31.85
2023-03-06T03:57:43.719Z,31.63
2023-03-06T04:00:48.395Z,31.80
2023-03-06T04:03:51.856Z,31.89
2023-03-06T04:06:54.960Z,31.80
2023-03-06T04:09:58.015Z,31.82
2023-03-06T04:13:01.247Z,31.71
2023-03-06T04:16:06.022Z,31.64
2023-03-06T04:19:09.123Z,31.71
2023-03-06T04:22:12.250Z,31.57
2023-03-06T04:25:15.476Z,31.54
2023-03-06T04:28:18.638Z,32.40
2023-03-06T04:31:23.412Z,32.92
2023-03-06T04:34:26.505Z,33.06
2023-03-06T04:37:29.735Z,33.38
2023-03-06T04:40:34.359Z,32.97
2023-03-06T04:43:39.566Z,32.96
2023-03-06T04:46:44.083Z,33.32
2023-03-06T04:49:47.201Z,33.35
2023-03-06T04:52:50.346Z,33.25
2023-03-06T04:55:53.461Z,33.12
2023-03-06T04:58:56.624Z,33.33
2023-03-06T05:02:01.212Z,33.42
2023-03-06T05:05:05.244Z,33.08
2023-03-06T05:08:08.341Z,33.12
2023-03-06T05:11:11.486Z,33.37
2023-03-06T05:14:14.616Z,33.55
2023-03-06T05:17:19.198Z,33.86
2023-03-06T05:20:22.497Z,33.75
2023-03-06T05:23:25.618Z,33.56
2023-03-06T05:26:28.748Z,33.82
2023-03-06T05:29:31.915Z,33.54
2023-03-06T05:32:36.562Z,33.57
2023-03-06T05:35:39.872Z,33.84
2023-03-06T05:38:42.931Z,33.70
2023-03-06T05:41:46.082Z,33.80
2023-03-06T05:44:49.131Z,33.51
2023-03-06T05:47:53.650Z,33.45
2023-03-06T05:50:57.448Z,33.38
2023-03-06T05:54:00.531Z,33.53
2023-03-06T05:57:04.957Z,33.41
2023-03-06T06:00:09.930Z,33.53
2023-03-06T06:03:14.678Z,33.77
2023-03-06T06:06:17.932Z,33.49
2023-03-06T06:09:21.088Z,33.48
2023-03-06T06:12:24.184Z,33.61
2023-03-06T06:15:28.980Z,33.42
2023-03-06T06:18:33.574Z,33.40
2023-03-06T06:21:36.664Z,33.32
2023-03-06T06:24:39.756Z,33.21
2023-03-06T06:27:43.310Z,33.06
2023-03-06T06:30:46.452Z,33.08
2023-03-06T06:33:50.995Z,32.95
2023-03-06T06:36:54.584Z,32.84
2023-03-06T06:39:57.919Z,32.75
2023-03-06T06:43:01.053Z,32.86
2023-03-06T06:46:31.490Z,32.89
2023-03-06T06:49:28.594Z,33.00
2023-03-06T06:52:31.739Z,32.71
2023-03-06T06:55:34.903Z,32.20
2023-03-06T06:58:38.140Z,32.33
2023-03-06T07:01:41.277Z,32.54
2023-03-06T07:05:02.581Z,32.10
2023-03-06T07:08:07.126Z,32.30
2023-03-06T07:11:13.038Z,32.10
2023-03-06T07:14:16.310Z,32.25
2023-03-06T07:17:19.444Z,31.94
2023-03-06T07:20:24.604Z,31.87
2023-03-06T07:23:27.910Z,31.75
2023-03-06T07:26:34.106Z,31.71
2023-03-06T07:29:37.738Z,32.06
2023-03-06T07:32:40.919Z,31.62
2023-03-06T07:35:45.790Z,31.93
2023-03-06T07:38:49.241Z,31.91
2023-03-06T07:41:53.532Z,31.57
2023-03-06T07:44:56.733Z,31.85
2023-03-06T07:48:00.062Z,31.50
2023-03-06T07:51:06.917Z,31.64
2023-03-06T07:54:10.025Z,31.36
2023-03-06T07:57:14.613Z,31.64
2023-03-06T08:00:18.370Z,31.29
2023-03-06T08:03:21.523Z,31.20
2023-03-06T08:06:28.501Z,31.31
2023-03-06T08:09:31.801Z,31.15
2023-03-06T08:12:34.874Z,31.36
2023-03-06T08:15:37.998Z,31.00
2023-03-06T08:18:41.134Z,31.04
2023-03-06T08:21:45.640Z,30.98
2023-03-06T08:24:48.678Z,31.01
2023-03-06T08:27:51.884Z,31.77
2023-03-06T08:30:55.003Z,31.94
2023-03-06T08:33:59.768Z,32.25
2023-03-06T08:37:04.235Z,31.44
2023-03-06T08:40:08.648Z,31.95
2023-03-06T08:43:14.120Z,32.18
2023-03-06T08:46:18.894Z,31.77
2023-03-06T08:49:22.439Z,32.12
2023-03-06T08:52:26.932Z,31.73
2023-03-06T08:55:30.216Z,31.76
2023-03-06T08:58:33.388Z,31.55
2023-03-06T09:01:38.364Z,32.13
2023-03-06T09:04:41.781Z,32.18
2023-03-06T09:07:46.350Z,32.24
2023-03-06T09:10:49.652Z,32.23
2023-03-06T09:13:53.331Z,31.84
2023-03-06T09:16:56.740Z,32.28
2023-03-06T09:19:59.912Z,31.70
2023-03-06T09:23:04.533Z,31.59
2023-03-06T09:26:09.054Z,31.46
2023-03-06T09:29:12.701Z,31.39
2023-03-06T09:32:15.935Z,31.70
2023-03-06T09:35:19.263Z,31.39
2023-03-06T09:38:25.834Z,31.48
2023-03-06T09:41:32.920Z,31.43
2023-03-06T09:44:38.739Z,31.62
2023-03-06T09:47:51.258Z,31.18
2023-03-06T09:51:03.610Z,31.64
2023-03-06T09:54:14.037Z,31.36
2023-03-06T09:57:22.947Z,31.60
2023-03-06T10:00:29.774Z,31.28
2023-03-06T10:03:39.458Z,31.32
2023-03-06T10:06:48.459Z,31.35
2023-03-06T10:09:58.417Z,31.74
2023-03-06T10:13:07.125Z,31.39
2023-03-06T10:16:23.576Z,31.73
2023-03-06T10:19:34.420Z,31.32
2023-03-06T10:22:40.608Z,31.30
2023-03-06T10:25:54.772Z,31.74
2023-03-06T10:29:17.463Z,31.49
2023-03-06T10:32:34.263Z,31.49
2023-03-06T10:35:48.682Z,31.24
2023-03-06T10:38:51.946Z,31.79
2023-03-06T10:41:57.040Z,31.31
2023-03-06T10:45:11.872Z,31.62
2023-03-06T10:48:21.028Z,31.36
2023-03-06T10:51:25.792Z,31.77
2023-03-06T10:54:29.718Z,31.74
2023-03-06T10:57:34.351Z,31.47
2023-03-06T11:00:37.495Z,31.70
2023-03-06T11:03:41.124Z,31.52
2023-03-06T11:06:44.355Z,31.87
2023-03-06T11:10:02.458Z,31.53
2023-03-06T11:13:20.935Z,32.04
2023-03-06T11:16:27.292Z,32.04
2023-03-06T11:19:32.776Z,31.81
2023-03-06T11:22:37.415Z,32.03
2023-03-06T11:25:45.216Z,32.14
2023-03-06T11:28:56.480Z,32.01
2023-03-06T11:32:06.261Z,32.05
2023-03-06T11:35:14.297Z,31.91
2023-03-06T11:38:23.268Z,32.10
2023-03-06T11:41:35.013Z,32.46
2023-03-06T11:44:54.289Z,32.58
2023-03-06T11:48:04.736Z,32.19
2023-03-06T11:51:15.590Z,32.52
2023-03-06T11:54:18.698Z,32.04
2023-03-06T11:57:25.587Z,32.25
2023-03-06T12:00:43.522Z,32.43
2023-03-06T12:04:09.025Z,32.21
2023-03-06T12:07:23.004Z,32.59
2023-03-06T12:10:32.421Z,32.59
2023-03-06T12:17:07.032Z,32.42
2023-03-06T12:20:24.894Z,32.68
2023-03-06T12:23:46.346Z,32.57
2023-03-06T12:27:13.695Z,32.33
2023-03-06T12:30:35.284Z,32.54
2023-03-06T12:33:50.416Z,32.67
2023-03-06T12:37:05.627Z,32.59
2023-03-06T12:40:27.600Z,32.70
2023-03-06T12:44:04.452Z,32.67
2023-03-06T12:47:12.804Z,32.82
2023-03-06T12:50:26.084Z,32.48
2023-03-06T12:53:31.956Z,32.50
2023-03-06T12:56:36.335Z,32.46
2023-03-06T12:59:47.349Z,32.99
2023-03-06T13:03:07.275Z,32.58
2023-03-06T13:06:50.129Z,32.86
2023-03-06T13:10:10.006Z,32.88
2023-03-06T13:13:33.022Z,32.95
2023-03-06T13:16:36.421Z,32.64
2023-03-06T13:19:39.621Z,32.63
2023-03-06T13:22:45.953Z,33.06
2023-03-06T13:25:51.420Z,33.08
2023-03-06T13:28:57.830Z,32.50
2023-03-06T13:32:08.921Z,32.71
2023-03-06T13:35:47.563Z,33.11
2023-03-06T13:39:08.728Z,32.98
2023-03-06T13:42:28.204Z,33.04
2023-03-06T13:45:38.600Z,32.95
2023-03-06T13:48:45.146Z,32.63
2023-03-06T13:52:06.061Z,33.19
2023-03-06T13:55:25.384Z,33.03
2023-03-06T13:58:50.418Z,33.22
2023-03-06T14:02:04.542Z,32.98
2023-03-06T14:05:13.472Z,32.94
2023-03-06T14:08:18.656Z,32.77
2023-03-06T14:11:23.295Z,33.20
2023-03-06T14:14:35.247Z,32.86
2023-03-06T14:17:39.218Z,32.70
2023-03-06T14:20:44.386Z,33.14
2023-03-06T14:23:47.621Z,32.78
2023-03-06T14:26:52.995Z,33.10
2023-03-06T14:30:06.749Z,33.14
2023-03-06T14:33:12.687Z,33.29
2023-03-06T14:36:19.951Z,32.85
2023-03-06T14:43:50.009Z,33.26
2023-03-06T14:46:55.684Z,33.03
2023-03-06T14:50:21.759Z,32.85
2023-03-06T14:53:28.250Z,33.17
2023-03-06T14:56:33.651Z,33.34
2023-03-06T14:59:46.529Z,32.78
2023-03-06T15:02:52.124Z,33.26
2023-03-06T15:05:56.476Z,33.02
2023-03-06T15:09:06.494Z,32.93
2023-03-06T15:12:35.801Z,33.11
2023-03-06T15:15:40.417Z,32.84
2023-03-06T15:18:55.531Z,33.11
2023-03-06T15:21:58.637Z,33.10
2023-03-06T15:25:26.668Z,33.05
2023-03-06T15:28:34.639Z,33.18
2023-03-06T15:31:40.757Z,33.29
2023-03-06T15:34:44.195Z,32.75
2023-03-06T15:37:47.585Z,33.21
2023-03-06T15:40:57.238Z,33.08
2023-03-06T15:44:01.621Z,33.11
2023-03-06T15:47:09.590Z,32.85
2023-03-06T15:50:17.892Z,33.01
2023-03-06T15:53:21.040Z,32.88
2023-03-06T15:56:30.598Z,33.39
2023-03-06T15:59:40.281Z,32.88
2023-03-06T16:02:44.873Z,32.88
2023-03-06T16:05:48.160Z,32.97
2023-03-06T16:08:51.436Z,32.93
2023-03-06T16:11:55.231Z,33.27
2023-03-06T16:14:59.584Z,32.79
2023-03-06T16:18:04.677Z,32.84
2023-03-06T16:21:07.736Z,32.90
2023-03-06T16:24:10.929Z,32.89
2023-03-06T16:27:18.944Z,32.89
2023-03-06T16:30:24.266Z,33.08
2023-03-06T16:33:28.884Z,33.00
2023-03-06T16:36:32.643Z,33.34
2023-03-06T16:39:35.850Z,33.09
2023-03-06T16:42:38.916Z,33.09
2023-03-06T16:45:43.070Z,33.17
2023-03-06T16:48:48.081Z,32.85
2023-03-06T16:51:51.535Z,33.07
2023-03-06T16:54:54.683Z,33.23
2023-03-06T16:57:57.884Z,33.59
2023-03-06T17:01:02.220Z,33.00
2023-03-06T17:04:06.967Z,33.52
2023-03-06T17:07:10.074Z,33.13
2023-03-06T17:10:16.306Z,34.10
2023-03-06T17:13:19.457Z,34.35
2023-03-06T17:16:22.720Z,34.72
2023-03-06T17:19:27.534Z,35.68
2023-03-06T17:22:33.878Z,37.01
2023-03-06T17:25:38.493Z,38.36
2023-03-06T17:28:41.992Z,38.41
2023-03-06T17:31:45.299Z,38.71
2023-03-06T17:34:49.897Z,38.41
2023-03-06T17:37:53.023Z,37.68
2023-03-06T17:40:56.507Z,37.88
2023-03-06T17:44:01.746Z,37.14
2023-03-06T17:47:05.301Z,37.21
2023-03-06T17:50:11.644Z,36.90
2023-03-06T17:53:14.773Z,36.43
2023-03-06T17:56:17.975Z,36.51
2023-03-06T17:59:21.362Z,36.28
2023-03-06T18:02:24.507Z,36.29
2023-03-06T18:05:29.029Z,36.30
2023-03-06T18:08:32.905Z,35.71
2023-03-06T18:11:37.297Z,36.01
2023-03-06T18:14:40.411Z,36.04
2023-03-06T18:17:43.532Z,36.28
2023-03-06T18:20:48.327Z,35.90
2023-03-06T18:23:52.136Z,35.99
2023-03-06T18:26:55.209Z,35.66
2023-03-06T18:29:59.919Z,30.57
2023-03-06T18:33:03.421Z,32.42
2023-03-06T18:36:08.477Z,32.61
2023-03-06T18:39:13.988Z,32.39
2023-03-06T18:42:17.091Z,31.75
2023-03-06T18:45:20.830Z,31.66
2023-03-06T18:48:24.815Z,30.87
2023-03-06T18:51:29.772Z,30.03
2023-03-06T18:54:32.864Z,29.72
2023-03-06T18:57:35.923Z,28.70
2023-03-06T19:00:39.171Z,29.03
2023-03-06T19:03:43.340Z,29.30
2023-03-06T19:06:48.238Z,29.26
2023-03-06T19:09:51.468Z,29.45
2023-03-06T19:12:54.628Z,28.80
2023-03-06T19:15:58.338Z,29.34
2023-03-06T19:19:01.771Z,28.59
2023-03-06T19:22:06.297Z,28.28
2023-03-06T19:25:10.366Z,28.63
2023-03-06T19:28:13.553Z,29.09
2023-03-06T19:31:20.339Z,28.99
2023-03-06T19:34:23.518Z,29.02
2023-03-06T19:37:28.164Z,29.79
2023-03-06T19:40:31.239Z,29.51
2023-03-06T19:43:34.391Z,29.87
2023-03-06T19:46:37.736Z,30.30
2023-03-06T19:49:40.866Z,30.26
2023-03-06T19:52:45.343Z,30.47
2023-03-06T19:55:48.487Z,30.86
2023-03-06T19:58:52.859Z,31.01
2023-03-06T20:01:55.931Z,30.96
2023-03-06T20:04:59.138Z,31.28
2023-03-06T20:08:03.703Z,31.09
2023-03-06T20:11:07.069Z,31.03
2023-03-06T20:14:11.679Z,31.31
2023-03-06T20:17:14.857Z,31.48
2023-03-06T20:20:18.197Z,31.46
2023-03-06T20:23:22.692Z,31.81
2023-03-06T20:26:26.658Z,32.07
2023-03-06T20:29:29.797Z,31.88
2023-03-06T20:32:33.498Z,32.05
2023-03-06T20:35:41.469Z,32.16
2023-03-06T20:38:47.028Z,31.91
2023-03-06T20:41:50.182Z,32.18
2023-03-06T20:44:53.311Z,31.77
2023-03-06T20:47:57.257Z,32.49
2023-03-06T20:51:01.935Z,32.27
2023-03-06T20:54:08.019Z,32.08
2023-03-06T20:57:11.190Z,32.32
2023-03-06T21:00:15.018Z,32.70
2023-03-06T21:03:18.208Z,32.54
2023-03-06T21:06:21.840Z,32.78
2023-03-06T21:09:27.404Z,32.72
2023-03-06T21:12:31.095Z,32.70
2023-03-06T21:15:34.347Z,32.77
2023-03-06T21:18:37.884Z,32.77
2023-03-06T21:21:40.974Z,33.07
2023-03-06T21:24:45.571Z,32.88
2023-03-06T21:27:48.823Z,32.70
2023-03-06T21:30:52.022Z,32.99
2023-03-06T21:33:55.731Z,33.21
2023-03-06T21:36:58.899Z,32.93
2023-03-06T21:40:05.015Z,32.72
2023-03-06T21:43:08.916Z,33.04
2023-03-06T21:46:12.863Z,32.93
2023-03-06T21:49:18.332Z,33.07
2023-03-06T21:52:21.468Z,32.89
2023-03-06T21:55:26.097Z,33.16
2023-03-06T21:58:29.939Z,32.84
2023-03-06T22:01:33.043Z,32.81
2023-03-06T22:04:36.322Z,32.89
2023-03-06T22:07:40.057Z,33.00
2023-03-06T22:10:45.089Z,32.98
2023-03-06T22:13:49.955Z,32.48
2023-03-06T22:16:53.233Z,33.02
2023-03-06T22:19:56.504Z,32.93
2023-03-06T22:22:59.639Z,32.67
2023-03-06T22:26:05.361Z,32.64
2023-03-06T22:29:08.684Z,32.54
2023-03-06T22:32:11.925Z,32.87
2023-03-06T22:35:15.208Z,32.71
2023-03-06T22:38:19.256Z,32.70
2023-03-06T22:41:23.970Z,32.33
2023-03-06T22:44:27.278Z,33.02
2023-03-06T22:47:30.410Z,32.88
2023-03-06T22:50:34.783Z,32.87
2023-03-06T22:53:38.643Z,32.69
2023-03-06T22:56:43.193Z,32.79
2023-03-06T22:59:46.348Z,32.44
2023-03-06T23:02:49.450Z,32.61
2023-03-06T23:05:52.514Z,32.71
2023-03-06T23:08:58.534Z,32.33
2023-03-06T23:12:03.347Z,32.88
2023-03-06T23:15:07.393Z,32.65
2023-03-06T23:18:10.527Z,32.47
2023-03-06T23:21:16.024Z,32.67
2023-03-06T23:24:19.133Z,32.59
2023-03-06T23:27:23.745Z,32.81
2023-03-06T23:30:26.850Z,32.56
2023-03-06T23:33:30.088Z,32.65
2023-03-06T23:36:33.371Z,32.20
2023-03-06T23:39:37.362Z,32.52
2023-03-06T23:42:41.998Z,32.64
2023-03-06T23:45:53.735Z,32.76
2023-03-06T23:48:56.895Z,32.65
2023-03-06T23:52:00.006Z,32.57
2023-03-06T23:55:03.140Z,32.90
2023-03-06T23:58:07.633Z,32.59
